createdAt,value
2022-08-12T00:00:29.585Z,99997.53
2022-08-12T00:02:02.965Z,99994.81
2022-08-12T00:03:00.801Z,100000.25
2022-08-12T00:04:06.616Z,99994.97
2022-08-12T00:05:12.348Z,99993.31
2022-08-12T00:06:17.944Z,100000.41
2022-08-12T00:07:23.516Z,100003.75
2022-08-12T00:08:35.684Z,100002.13
2022-08-12T00:09:42.596Z,100000.25
2022-08-12T00:10:48.226Z,99998.16
2022-08-12T00:11:53.975Z,100007.56
2022-08-12T00:12:59.675Z,100008.38
2022-08-12T00:14:05.546Z,100003.78
2022-08-12T00:15:11.195Z,100005.47
2022-08-12T00:16:17.174Z,100001.06
2022-08-12T00:17:23.450Z,100006.72
2022-08-12T00:18:28.875Z,100002.56
2022-08-12T00:19:34.593Z,100001.91
2022-08-12T00:20:40.065Z,99997.94
2022-08-12T00:21:45.780Z,99997.94
2022-08-12T00:22:58.969Z,100000.03
2022-08-12T00:24:05.285Z,99998.56
2022-08-12T00:25:17.435Z,100005.47
2022-08-12T00:26:24.617Z,100002.13
2022-08-12T00:27:43.311Z,100002.31
2022-08-12T00:28:50.166Z,100002.97
2022-08-12T00:29:56.584Z,100002.13
2022-08-12T00:31:02.156Z,100000.88
2022-08-12T00:32:07.514Z,100001.50
2022-08-12T00:33:17.715Z,100000.25
2022-08-12T00:34:23.405Z,100002.97
2022-08-12T00:35:36.880Z,100002.97
2022-08-12T00:36:46.776Z,100004.41
2022-08-12T00:37:56.425Z,99996.69
2022-08-12T00:39:02.175Z,99995.88
2022-08-12T00:40:10.820Z,99998.78
2022-08-12T00:41:17.905Z,100002.56
2022-08-12T00:42:10.827Z,100005.28
2022-08-12T00:42:58.307Z,99994.78
2022-08-12T00:43:46.395Z,100001.91
2022-08-12T00:44:33.216Z,100002.34
2022-08-12T00:45:21.050Z,100002.97
2022-08-12T00:46:26.016Z,100004.19
2022-08-12T00:47:24.669Z,100000.44
2022-08-12T00:48:12.665Z,100000.88
2022-08-12T00:48:59.974Z,100001.50
2022-08-12T00:49:50.285Z,100004.00
2022-08-12T00:50:37.216Z,100002.53
2022-08-12T00:51:45.285Z,100001.72
2022-08-12T00:52:34.370Z,100002.09
2022-08-12T00:53:22.446Z,100002.72
2022-08-12T00:54:09.525Z,99997.28
2022-08-12T00:54:59.195Z,99993.72
2022-08-12T00:55:47.154Z,99993.97
2022-08-12T00:56:34.186Z,99991.63
2022-08-12T00:57:23.810Z,99997.94
2022-08-12T00:58:11.275Z,99996.66
2022-08-12T00:58:59.855Z,99992.03
2022-08-12T00:59:51.442Z,99994.75
2022-08-12T01:00:39.745Z,99992.84
2022-08-12T01:01:27.039Z,99995.78
2022-08-12T01:02:36.437Z,99996.59
2022-08-12T01:03:23.605Z,99991.59
2022-08-12T01:04:29.376Z,99993.03
2022-08-12T01:05:37.720Z,99993.47
2022-08-12T01:06:43.265Z,99992.84
2022-08-12T01:07:48.744Z,100001.41
2022-08-12T01:08:54.385Z,100003.28
2022-08-12T01:10:00.006Z,99997.47
2022-08-12T01:11:06.635Z,100005.19
2022-08-12T01:11:54.064Z,100004.13
2022-08-12T01:12:42.426Z,100000.78
2022-08-12T01:13:31.284Z,100005.78
2022-08-12T01:14:21.225Z,100003.06
2022-08-12T01:15:08.934Z,100001.81
2022-08-12T01:15:59.245Z,99997.62
2022-08-12T01:16:48.224Z,99998.03
2022-08-12T01:17:36.943Z,99999.09
2022-08-12T01:18:26.714Z,99998.25
2022-08-12T01:19:13.754Z,99998.25
2022-08-12T01:20:06.375Z,100000.97
2022-08-12T01:20:53.173Z,100001.62
2022-08-12T01:22:04.024Z,99995.13
2022-08-12T01:22:55.556Z,99997.19
2022-08-12T01:24:30.425Z,99987.56
2022-08-12T01:25:19.845Z,99993.19
2022-08-12T01:26:08.714Z,99989.00
2022-08-12T01:26:56.725Z,99986.66
2022-08-12T01:27:44.746Z,99989.38
2022-08-12T01:28:32.094Z,99991.03
2022-08-12T01:29:28.563Z,99990.62
2022-08-12T01:30:19.405Z,99988.50
2022-08-12T01:31:06.634Z,99989.12
2022-08-12T01:31:57.666Z,99991.00
2022-08-12T01:32:47.727Z,99992.06
2022-08-12T01:33:59.866Z,99991.19
2022-08-12T01:34:56.344Z,99981.81
2022-08-12T01:35:57.854Z,99983.28
2022-08-12T01:37:00.764Z,99983.88
2022-08-12T01:37:58.865Z,99995.78
2022-08-12T01:38:48.314Z,99982.62
2022-08-12T01:40:33.181Z,99988.69
2022-08-12T01:40:49.388Z,99982.00
2022-08-12T01:41:50.455Z,99982.62
2022-08-12T01:42:46.864Z,99979.69
2022-08-12T01:43:34.365Z,99979.84
2022-08-12T01:44:22.655Z,99979.59
2022-08-12T01:45:12.594Z,99972.81
2022-08-12T01:46:39.224Z,99979.31
2022-08-12T01:47:43.332Z,99971.50
2022-08-12T01:48:52.654Z,99979.88
2022-08-12T01:50:01.964Z,99983.22
2022-08-12T01:52:07.505Z,99974.22
2022-08-12T01:52:49.554Z,99971.69
2022-08-12T01:54:04.749Z,99977.34
2022-08-12T01:54:52.085Z,99972.72
2022-08-12T01:55:42.174Z,99967.22
2022-08-12T01:56:41.994Z,99968.47
2022-08-12T01:57:59.733Z,99967.44
2022-08-12T01:59:07.385Z,99970.87
2022-08-12T02:00:06.579Z,99968.66
2022-08-12T02:01:00.546Z,99968.88
2022-08-12T02:01:50.832Z,99967.03
2022-08-12T02:02:47.759Z,99962.63
2022-08-12T02:03:53.144Z,99967.91
2022-08-12T02:05:07.508Z,99973.34
2022-08-12T02:06:27.775Z,99964.13
2022-08-12T02:07:39.544Z,99964.09
2022-08-12T02:09:11.094Z,99958.19
2022-08-12T02:10:50.497Z,99957.25
2022-08-12T02:11:36.626Z,99956.41
2022-08-12T02:12:49.621Z,99958.97
2022-08-12T02:14:14.095Z,99961.97
2022-08-12T02:15:13.231Z,99957.34
2022-08-12T02:16:08.094Z,99957.56
2022-08-12T02:17:19.924Z,99964.75
2022-08-12T02:18:26.819Z,99957.91
2022-08-12T02:19:45.305Z,99960.00
2022-08-12T02:20:52.254Z,99960.88
2022-08-12T02:21:46.665Z,99959.25
2022-08-12T02:22:42.471Z,99959.81
2022-08-12T02:23:29.555Z,99956.06
2022-08-12T02:24:20.774Z,99958.38
2022-08-12T02:25:33.945Z,99957.97
2022-08-12T02:26:21.034Z,99955.03
2022-08-12T02:27:09.620Z,99958.22
2022-08-12T02:27:56.973Z,99962.19
2022-08-12T02:28:43.983Z,99958.78
2022-08-12T02:29:31.156Z,99953.59
2022-08-12T02:30:22.206Z,99962.59
2022-08-12T02:31:09.674Z,99961.16
2022-08-12T02:31:57.583Z,99963.66
2022-08-12T02:32:46.284Z,99957.41
2022-08-12T02:33:33.744Z,99958.69
2022-08-12T02:34:22.094Z,99955.53
2022-08-12T02:35:24.094Z,99965.81
2022-08-12T02:36:10.985Z,99959.59
2022-08-12T02:37:02.519Z,99958.97
2022-08-12T02:37:54.316Z,99967.53
2022-08-12T02:38:43.463Z,99966.94
2022-08-12T02:39:34.710Z,99959.78
2022-08-12T02:40:23.183Z,99967.34
2022-08-12T02:41:12.234Z,99957.53
2022-08-12T02:42:01.244Z,99959.59
2022-08-12T02:42:54.114Z,99956.44
2022-08-12T02:43:46.896Z,99958.19
2022-08-12T02:44:38.416Z,99953.34
2022-08-12T02:45:38.231Z,99956.13
2022-08-12T02:46:32.991Z,99952.56
2022-08-12T02:47:59.204Z,99956.13
2022-08-12T02:48:31.883Z,99953.00
2022-08-12T02:49:27.928Z,99959.91
2022-08-12T02:50:16.384Z,99963.44
2022-08-12T02:51:13.287Z,99963.03
2022-08-12T02:52:00.513Z,99959.50
2022-08-12T02:52:47.843Z,99968.28
2022-08-12T02:53:36.813Z,99964.97
2022-08-12T02:54:23.641Z,99960.59
2022-08-12T02:55:28.641Z,99963.50
2022-08-12T02:56:21.604Z,99960.38
2022-08-12T02:57:08.483Z,99966.25
2022-08-12T02:57:56.054Z,99961.84
2022-08-12T02:58:45.285Z,99963.94
2022-08-12T02:59:34.784Z,99962.50
2022-08-12T03:00:22.064Z,99968.38
2022-08-12T03:01:11.828Z,99972.34
2022-08-12T03:02:06.138Z,99970.47
2022-08-12T03:02:53.124Z,99967.09
2022-08-12T03:03:41.543Z,99962.28
2022-08-12T03:04:40.180Z,99968.34
2022-08-12T03:05:33.244Z,99972.56
2022-08-12T03:07:01.404Z,99968.13
2022-08-12T03:07:59.813Z,99959.56
2022-08-12T03:08:51.851Z,99967.97
2022-08-12T03:10:04.631Z,99968.59
2022-08-12T03:10:55.194Z,99967.12
2022-08-12T03:12:06.344Z,99962.53
2022-08-12T03:12:57.743Z,99967.75
2022-08-12T03:13:54.646Z,99953.16
2022-08-12T03:14:45.984Z,99969.25
2022-08-12T03:15:33.304Z,99965.28
2022-08-12T03:16:20.984Z,99958.38
2022-08-12T03:17:11.853Z,99958.59
2022-08-12T03:18:26.535Z,99959.81
2022-08-12T03:19:15.364Z,99956.09
2022-08-12T03:20:10.630Z,99956.75
2022-08-12T03:21:01.922Z,99957.75
2022-08-12T03:21:59.912Z,99949.81
2022-08-12T03:22:56.444Z,99955.69
2022-08-12T03:23:46.223Z,99959.03
2022-08-12T03:24:33.683Z,99953.16
2022-08-12T03:25:27.687Z,99955.91
2022-08-12T03:26:15.094Z,99955.69
2022-08-12T03:27:03.368Z,99955.69
2022-08-12T03:27:51.886Z,99951.94
2022-08-12T03:28:51.056Z,99956.09
2022-08-12T03:29:43.270Z,99954.44
2022-08-12T03:30:38.204Z,99960.31
2022-08-12T03:31:35.253Z,99961.53
2022-08-12T03:32:36.353Z,99965.31
2022-08-12T03:33:24.071Z,99959.88
2022-08-12T03:34:14.234Z,99960.09
2022-08-12T03:35:02.392Z,99957.19
2022-08-12T03:35:50.154Z,99962.63
2022-08-12T03:36:39.693Z,99965.53
2022-08-12T03:37:30.514Z,99966.16
2022-08-12T03:38:18.673Z,99955.28
2022-08-12T03:39:19.930Z,99959.47
2022-08-12T03:40:46.234Z,99961.34
2022-08-12T03:41:36.184Z,99968.06
2022-08-12T03:42:51.981Z,99962.37
2022-08-12T03:44:04.227Z,99957.38
2022-08-12T03:45:18.504Z,99964.06
2022-08-12T03:46:29.943Z,99962.00
2022-08-12T03:47:41.868Z,99960.94
2022-08-12T03:48:47.713Z,99960.72
2022-08-12T03:49:53.993Z,99966.59
2022-08-12T03:50:59.785Z,99960.09
2022-08-12T03:52:05.354Z,99964.28
2022-08-12T03:53:10.954Z,99954.87
2022-08-12T03:54:16.735Z,99961.34
2022-08-12T03:55:22.432Z,99964.28
2022-08-12T03:56:28.163Z,99955.06
2022-08-12T03:57:33.863Z,99952.78
2022-08-12T03:58:39.880Z,99960.31
2022-08-12T03:59:45.544Z,99959.28
2022-08-12T04:00:33.566Z,99951.94
2022-08-12T04:01:23.267Z,99954.25
2022-08-12T04:02:15.413Z,99956.13
2022-08-12T04:03:02.327Z,99958.00
2022-08-12T04:03:53.081Z,99956.53
2022-08-12T04:04:45.493Z,99955.28
2022-08-12T04:05:56.204Z,99955.47
2022-08-12T04:06:47.554Z,99960.28
2022-08-12T04:07:34.544Z,99959.25
2022-08-12T04:08:24.814Z,99964.50
2022-08-12T04:09:16.080Z,99964.06
2022-08-12T04:10:04.723Z,99963.44
2022-08-12T04:11:10.225Z,99960.94
2022-08-12T04:12:15.824Z,99966.34
2022-08-12T04:13:19.967Z,99966.16
2022-08-12T04:14:20.821Z,99969.09
2022-08-12T04:15:11.124Z,99974.94
2022-08-12T04:15:58.835Z,99972.00
2022-08-12T04:16:46.323Z,99980.56
2022-08-12T04:17:33.713Z,99973.91
2022-08-12T04:18:21.254Z,99974.50
2022-08-12T04:19:08.313Z,99973.03
2022-08-12T04:19:56.814Z,99975.75
2022-08-12T04:20:44.853Z,99979.94
2022-08-12T04:21:35.043Z,99975.38
2022-08-12T04:22:23.253Z,99978.09
2022-08-12T04:23:16.815Z,99976.19
2022-08-12T04:24:04.463Z,99970.75
2022-08-12T04:24:54.027Z,99978.69
2022-08-12T04:25:41.577Z,99979.53
2022-08-12T04:26:29.187Z,99979.09
2022-08-12T04:27:16.104Z,99977.00
2022-08-12T04:28:12.996Z,99988.50
2022-08-12T04:29:01.183Z,99988.09
2022-08-12T04:30:29.581Z,99981.38
2022-08-12T04:30:57.675Z,99981.59
2022-08-12T04:31:44.513Z,99985.31
2022-08-12T04:32:32.289Z,99978.81
2022-08-12T04:33:19.766Z,99989.62
2022-08-12T04:34:07.835Z,99986.88
2022-08-12T04:34:55.404Z,99982.44
2022-08-12T04:35:42.344Z,99986.56
2022-08-12T04:36:30.345Z,99986.09
2022-08-12T04:37:17.233Z,99978.63
2022-08-12T04:38:05.455Z,99981.94
2022-08-12T04:38:57.667Z,99976.28
2022-08-12T04:39:46.672Z,99983.72
2022-08-12T04:40:36.617Z,99978.94
2022-08-12T04:41:24.304Z,99980.19
2022-08-12T04:42:11.254Z,99984.59
2022-08-12T04:42:58.865Z,99987.84
2022-08-12T04:43:54.505Z,99989.28
2022-08-12T04:44:49.439Z,99994.63
2022-08-12T04:45:38.004Z,99983.16
2022-08-12T04:46:30.607Z,99997.03
2022-08-12T04:47:21.949Z,99988.22
2022-08-12T04:48:08.982Z,99984.31
2022-08-12T04:48:56.291Z,99994.03
2022-08-12T04:49:45.222Z,99986.22
2022-08-12T04:50:36.034Z,99994.03
2022-08-12T04:51:24.944Z,99989.81
2022-08-12T04:52:12.443Z,99993.75
2022-08-12T04:53:00.925Z,99990.06
2022-08-12T04:53:49.183Z,99990.66
2022-08-12T04:54:36.398Z,99998.56
2022-08-12T04:55:23.906Z,99992.63
2022-08-12T04:56:13.449Z,99999.09
2022-08-12T04:57:04.285Z,99998.19
2022-08-12T04:57:51.963Z,99992.13
2022-08-12T04:58:39.106Z,99993.41
2022-08-12T04:59:25.924Z,99999.34
2022-08-12T05:00:14.515Z,99996.69
2022-08-12T05:01:01.424Z,99987.94
2022-08-12T05:01:52.675Z,99987.59
2022-08-12T05:02:40.433Z,99987.63
2022-08-12T05:03:28.063Z,99993.47
2022-08-12T05:04:16.252Z,99991.13
2022-08-12T05:05:05.433Z,99986.91
2022-08-12T05:05:52.557Z,99996.28
2022-08-12T05:06:39.394Z,99999.97
2022-08-12T05:07:26.615Z,99996.34
2022-08-12T05:08:18.104Z,99998.38
2022-08-12T05:09:11.137Z,99991.41
2022-08-12T05:10:01.995Z,99996.84
2022-08-12T05:10:49.423Z,99999.28
2022-08-12T05:11:37.084Z,99994.94
2022-08-12T05:12:46.931Z,99997.84
2022-08-12T05:13:39.775Z,99995.53
2022-08-12T05:14:26.734Z,99994.94
2022-08-12T05:15:21.241Z,99997.50
2022-08-12T05:16:16.305Z,99997.09
2022-08-12T05:17:12.944Z,99998.00
2022-08-12T05:18:02.188Z,99997.47
2022-08-12T05:19:06.413Z,99999.44
2022-08-12T05:20:06.393Z,99996.59
2022-08-12T05:20:54.564Z,99996.69
2022-08-12T05:21:41.363Z,99988.22
2022-08-12T05:22:28.983Z,99996.69
2022-08-12T05:23:20.633Z,99992.81
2022-08-12T05:24:07.783Z,99993.63
2022-08-12T05:24:54.884Z,99996.56
2022-08-12T05:25:43.488Z,99995.25
2022-08-12T05:26:30.522Z,99994.25
2022-08-12T05:27:18.333Z,99997.56
2022-08-12T05:28:08.324Z,100003.66
2022-08-12T05:28:55.283Z,99997.56
2022-08-12T05:30:07.787Z,100009.97
2022-08-12T05:30:50.483Z,99999.03
2022-08-12T05:31:42.494Z,100001.50
2022-08-12T05:32:35.618Z,99999.22
2022-08-12T05:33:35.863Z,100001.25
2022-08-12T05:34:26.679Z,100001.75
2022-08-12T05:35:15.903Z,100003.31
2022-08-12T05:36:02.893Z,100010.09
2022-08-12T05:36:49.772Z,100002.56
2022-08-12T05:37:36.770Z,99996.41
2022-08-12T05:38:42.139Z,99992.97
2022-08-12T05:39:28.967Z,100003.31
2022-08-12T05:40:16.522Z,99996.81
2022-08-12T05:41:06.104Z,99993.34
2022-08-12T05:41:53.724Z,100002.34
2022-08-12T05:42:40.523Z,99994.47
2022-08-12T05:43:27.704Z,99998.97
2022-08-12T05:44:16.994Z,99994.81
2022-08-12T05:45:04.333Z,99996.66
2022-08-12T05:45:51.513Z,99998.78
2022-08-12T05:46:38.605Z,99998.00
2022-08-12T05:47:36.667Z,99992.06
2022-08-12T05:48:32.743Z,99996.41
2022-08-12T05:49:19.603Z,99995.81
2022-08-12T05:50:06.875Z,99995.88
2022-08-12T05:50:53.716Z,99997.44
2022-08-12T05:51:41.846Z,99994.91
2022-08-12T05:52:28.784Z,99990.09
2022-08-12T05:53:15.883Z,99998.69
2022-08-12T05:54:02.874Z,99993.03
2022-08-12T05:54:57.402Z,99996.97
2022-08-12T05:55:44.794Z,99991.91
2022-08-12T05:56:34.946Z,99990.03
2022-08-12T05:57:22.045Z,99987.09
2022-08-12T05:58:09.083Z,99988.34
2022-08-12T05:58:57.614Z,99989.25
2022-08-12T05:59:44.473Z,99989.81
2022-08-12T06:00:32.256Z,99998.00
2022-08-12T06:02:09.313Z,99989.75
2022-08-12T06:02:27.853Z,99994.91
2022-08-12T06:03:19.691Z,99995.91
2022-08-12T06:04:08.817Z,99995.44
2022-08-12T06:05:00.495Z,99998.06
2022-08-12T06:05:54.648Z,99998.19
2022-08-12T06:06:42.485Z,99995.19
2022-08-12T06:07:59.408Z,99998.19
2022-08-12T06:08:36.448Z,100001.56
2022-08-12T06:09:23.365Z,100005.56
2022-08-12T06:10:10.399Z,99999.06
2022-08-12T06:10:57.511Z,100000.69
2022-08-12T06:12:05.247Z,100006.47
2022-08-12T06:12:53.914Z,100002.91
2022-08-12T06:13:53.796Z,100006.97
2022-08-12T06:14:41.484Z,100002.91
2022-08-12T06:15:28.807Z,99993.13
2022-08-12T06:16:20.404Z,100001.34
2022-08-12T06:17:09.286Z,99990.97
2022-08-12T06:18:11.437Z,99999.19
2022-08-12T06:19:01.645Z,99995.72
2022-08-12T06:20:28.138Z,99995.72
2022-08-12T06:21:01.511Z,100003.09
2022-08-12T06:21:49.024Z,100003.81
2022-08-12T06:22:35.831Z,100006.81
2022-08-12T06:23:22.892Z,100002.91
2022-08-12T06:24:14.365Z,100003.06
2022-08-12T06:25:01.248Z,100006.69
2022-08-12T06:25:48.048Z,100007.50
2022-08-12T06:26:35.045Z,100002.09
2022-08-12T06:27:21.984Z,100005.16
2022-08-12T06:28:19.683Z,100011.00
2022-08-12T06:29:06.746Z,100015.25
2022-08-12T06:30:08.907Z,100015.09
2022-08-12T06:31:24.893Z,100010.78
2022-08-12T06:32:07.669Z,100018.22
2022-08-12T06:33:18.750Z,100017.47
2022-08-12T06:35:25.500Z,100014.44
2022-08-12T06:35:26.731Z,100009.53
2022-08-12T06:36:21.741Z,100012.34
2022-08-12T06:37:10.344Z,100018.91
2022-08-12T06:37:58.403Z,100012.63
2022-08-12T06:38:46.313Z,100015.75
2022-08-12T06:39:33.433Z,100012.59
2022-08-12T06:40:38.984Z,100011.34
2022-08-12T06:42:02.662Z,100012.41
2022-08-12T06:42:54.354Z,100006.66
2022-08-12T06:44:05.612Z,100011.56
2022-08-12T06:44:50.730Z,100013.56
2022-08-12T06:45:45.947Z,100022.50
2022-08-12T06:46:33.443Z,100005.53
2022-08-12T06:47:22.175Z,100004.13
2022-08-12T06:48:09.724Z,100013.28
2022-08-12T06:48:59.166Z,100009.81
2022-08-12T06:49:46.335Z,100011.62
2022-08-12T06:50:36.871Z,100013.72
2022-08-12T06:51:28.607Z,100017.53
2022-08-12T06:52:15.524Z,100017.22
2022-08-12T06:53:04.633Z,100012.75
2022-08-12T06:53:51.446Z,100016.59
2022-08-12T06:54:38.304Z,100012.75
2022-08-12T06:55:26.254Z,100019.06
2022-08-12T06:56:13.325Z,100021.22
2022-08-12T06:57:56.920Z,100011.94
2022-08-12T06:58:10.524Z,100008.66
2022-08-12T06:58:58.134Z,100018.84
2022-08-12T06:59:45.136Z,100019.72
2022-08-12T07:00:34.200Z,100020.16
2022-08-12T07:01:21.190Z,100020.28
2022-08-12T07:02:08.824Z,100019.56
2022-08-12T07:02:56.045Z,100014.47
2022-08-12T07:03:42.867Z,100016.91
2022-08-12T07:04:38.224Z,100015.88
2022-08-12T07:05:26.344Z,100011.16
2022-08-12T07:06:13.907Z,100010.22
2022-08-12T07:07:00.900Z,100011.72
2022-08-12T07:07:48.034Z,100012.09
2022-08-12T07:08:35.614Z,100008.84
2022-08-12T07:10:04.004Z,100004.94
2022-08-12T07:10:33.201Z,99999.22
2022-08-12T07:11:20.035Z,100001.81
2022-08-12T07:12:20.036Z,100001.75
2022-08-12T07:13:09.768Z,100005.31
2022-08-12T07:14:11.953Z,100004.28
2022-08-12T07:15:02.006Z,100007.28
2022-08-12T07:15:50.544Z,100009.00
2022-08-12T07:16:52.686Z,100014.63
2022-08-12T07:17:40.862Z,100012.25
2022-08-12T07:18:30.242Z,100012.88
2022-08-12T07:19:17.440Z,100014.03
2022-08-12T07:20:06.930Z,100018.41
2022-08-12T07:20:54.124Z,100022.50
2022-08-12T07:21:59.668Z,100018.06
2022-08-12T07:22:49.887Z,100016.91
2022-08-12T07:23:39.173Z,100015.09
2022-08-12T07:24:26.457Z,100023.19
2022-08-12T07:25:41.242Z,100019.38
2022-08-12T07:26:29.604Z,100018.25
2022-08-12T07:27:17.594Z,100017.13
2022-08-12T07:28:16.254Z,100010.25
2022-08-12T07:29:05.163Z,100013.53
2022-08-12T07:29:57.940Z,100022.38
2022-08-12T07:30:53.614Z,100024.06
2022-08-12T07:31:41.006Z,100022.81
2022-08-12T07:32:29.575Z,100023.63
2022-08-12T07:33:17.285Z,100021.97
2022-08-12T07:34:05.635Z,100025.06
2022-08-12T07:34:54.795Z,100022.06
2022-08-12T07:35:48.442Z,100026.47
2022-08-12T07:36:35.630Z,100028.03
2022-08-12T07:37:22.745Z,100026.25
2022-08-12T07:38:33.824Z,100023.56
2022-08-12T07:39:20.889Z,100023.31
2022-08-12T07:40:11.883Z,100024.69
2022-08-12T07:41:05.804Z,100023.66
2022-08-12T07:41:52.594Z,100031.09
2022-08-12T07:42:41.190Z,100019.81
2022-08-12T07:43:28.428Z,100024.50
2022-08-12T07:44:15.675Z,100019.75
2022-08-12T07:45:04.914Z,100015.41
2022-08-12T07:45:53.509Z,100016.84
2022-08-12T07:46:43.419Z,100010.91
2022-08-12T07:47:31.095Z,100014.22
2022-08-12T07:48:18.084Z,100022.50
2022-08-12T07:49:07.414Z,100011.16
2022-08-12T07:50:04.183Z,100011.22
2022-08-12T07:50:53.564Z,100015.62
2022-08-12T07:51:42.376Z,100012.88
2022-08-12T07:52:29.574Z,100015.97
2022-08-12T07:53:16.613Z,100015.44
2022-08-12T07:54:09.445Z,100011.84
2022-08-12T07:54:56.503Z,100020.66
2022-08-12T07:55:43.654Z,100020.66
2022-08-12T07:56:31.524Z,100016.50
2022-08-12T07:57:18.464Z,100013.22
2022-08-12T07:58:05.788Z,100011.81
2022-08-12T07:58:52.730Z,100012.91
2022-08-12T07:59:40.264Z,100013.47
2022-08-12T08:00:28.478Z,100017.84
2022-08-12T08:01:21.508Z,100012.84
2022-08-12T08:02:10.160Z,100013.72
2022-08-12T08:02:58.874Z,100014.03
2022-08-12T08:04:05.267Z,100007.94
2022-08-12T08:04:58.251Z,100015.94
2022-08-12T08:05:46.694Z,100011.62
2022-08-12T08:06:34.154Z,100020.94
2022-08-12T08:07:21.804Z,100019.47
2022-08-12T08:08:21.130Z,100014.31
2022-08-12T08:09:10.254Z,100019.03
2022-08-12T08:10:00.602Z,100019.53
2022-08-12T08:10:48.099Z,100007.66
2022-08-12T08:11:53.863Z,100013.84
2022-08-12T08:12:58.355Z,100014.19
2022-08-12T08:13:46.204Z,100009.81
2022-08-12T08:14:33.206Z,100007.38
2022-08-12T08:15:21.003Z,100010.97
2022-08-12T08:16:08.464Z,100015.12
2022-08-12T08:16:59.148Z,100013.44
2022-08-12T08:18:02.846Z,100017.34
2022-08-12T08:18:49.828Z,100015.12
2022-08-12T08:20:03.105Z,100014.91
2022-08-12T08:20:45.829Z,100024.00
2022-08-12T08:21:35.644Z,100029.25
2022-08-12T08:22:33.461Z,100024.84
2022-08-12T08:23:56.372Z,100026.16
2022-08-12T08:24:45.835Z,100026.13
2022-08-12T08:25:36.026Z,100025.56
2022-08-12T08:26:25.375Z,100030.28
2022-08-12T08:27:12.484Z,100025.62
2022-08-12T08:28:04.066Z,100022.63
2022-08-12T08:28:50.875Z,100017.38
2022-08-12T08:29:37.955Z,100021.75
2022-08-12T08:30:24.874Z,100022.31
2022-08-12T08:31:14.460Z,100025.12
2022-08-12T08:32:01.887Z,100024.59
2022-08-12T08:32:48.963Z,100020.19
2022-08-12T08:34:04.761Z,100015.22
2022-08-12T08:34:52.986Z,100030.13
2022-08-12T08:35:46.802Z,100022.69
2022-08-12T08:36:34.545Z,100036.19
2022-08-12T08:37:21.433Z,100030.87
2022-08-12T08:38:14.786Z,100028.38
2022-08-12T08:39:24.951Z,100028.88
2022-08-12T08:40:31.116Z,100026.72
2022-08-12T08:42:16.429Z,100021.22
2022-08-12T08:42:50.817Z,100033.63
2022-08-12T08:43:44.667Z,100026.22
2022-08-12T08:44:32.408Z,100029.78
2022-08-12T08:45:19.545Z,100029.50
2022-08-12T08:46:06.454Z,100027.88
2022-08-12T08:46:55.842Z,100030.97
2022-08-12T08:47:49.564Z,100028.50
2022-08-12T08:48:36.573Z,100029.31
2022-08-12T08:49:23.866Z,100026.81
2022-08-12T08:50:11.386Z,100025.44
2022-08-12T08:51:04.730Z,100023.22
2022-08-12T08:51:52.435Z,100019.09
2022-08-12T08:52:40.982Z,100016.03
2022-08-12T08:53:28.007Z,100024.06
2022-08-12T08:54:15.355Z,100032.06
2022-08-12T08:55:02.246Z,100028.75
2022-08-12T08:56:04.547Z,100022.66
2022-08-12T08:56:52.529Z,100023.78
2022-08-12T08:57:43.762Z,100028.47
2022-08-12T08:58:31.394Z,100019.31
2022-08-12T08:59:19.645Z,100019.91
2022-08-12T09:00:07.525Z,100024.06
2022-08-12T09:00:56.494Z,100027.37
2022-08-12T09:01:44.627Z,100023.22
2022-08-12T09:02:31.908Z,100021.84
2022-08-12T09:05:09.196Z,100026.81
2022-08-12T09:05:14.398Z,100024.06
2022-08-12T09:06:01.723Z,100017.69
2022-08-12T09:06:53.525Z,100009.66
2022-08-12T09:07:58.863Z,100007.19
2022-08-12T09:08:52.518Z,100014.91
2022-08-12T09:10:02.128Z,100020.44
2022-08-12T09:10:47.284Z,100020.16
2022-08-12T09:12:11.870Z,100014.94
2022-08-12T09:14:29.467Z,100016.87
2022-08-12T09:16:24.405Z,100015.22
2022-08-12T09:17:14.232Z,100007.22
2022-08-12T09:18:09.530Z,100009.94
2022-08-12T09:18:56.442Z,100010.22
2022-08-12T09:19:43.433Z,100018.25
2022-08-12T09:20:33.776Z,100008.06
2022-08-12T09:22:29.397Z,100005.81
2022-08-12T09:23:58.431Z,100002.50
2022-08-12T09:24:27.834Z,100013.00
2022-08-12T09:25:25.306Z,100004.16
2022-08-12T09:26:13.051Z,99998.34
2022-08-12T09:26:59.894Z,100006.34
2022-08-12T09:28:04.342Z,100006.34
2022-08-12T09:28:54.076Z,100008.03
2022-08-12T09:30:09.851Z,100019.94
2022-08-12T09:30:51.344Z,100012.19
2022-08-12T09:32:05.812Z,100013.84
2022-08-12T09:33:03.816Z,100024.34
2022-08-12T09:34:28.118Z,100010.50
2022-08-12T09:34:59.748Z,99995.59
2022-08-12T09:35:46.990Z,99997.81
2022-08-12T09:37:00.742Z,99995.88
2022-08-12T09:37:58.092Z,100008.56
2022-08-12T09:38:58.567Z,100009.97
2022-08-12T09:40:06.051Z,100001.41
2022-08-12T09:41:02.233Z,99992.00
2022-08-12T09:42:40.334Z,99996.44
2022-08-12T09:43:53.930Z,99990.38
2022-08-12T09:45:18.023Z,99983.19
2022-08-12T09:46:20.311Z,99983.72
2022-08-12T09:47:10.476Z,99984.25
2022-08-12T09:48:00.377Z,99985.03
2022-08-12T09:48:56.253Z,99984.22
2022-08-12T09:49:43.952Z,99990.31
2022-08-12T09:50:31.783Z,99986.72
2022-08-12T09:51:22.491Z,99989.50
2022-08-12T09:52:12.073Z,99981.22
2022-08-12T09:54:32.826Z,99981.50
2022-08-12T09:54:33.054Z,99979.28
2022-08-12T09:56:05.294Z,99989.50
2022-08-12T09:56:59.778Z,99983.69
2022-08-12T09:58:44.565Z,99988.88
2022-08-12T09:59:00.096Z,99988.66
2022-08-12T10:00:15.153Z,99983.38
2022-08-12T10:01:14.706Z,99979.19
2022-08-12T10:02:43.341Z,99976.94
2022-08-12T10:03:32.174Z,99986.59
2022-08-12T10:04:19.786Z,99978.63
2022-08-12T10:05:13.169Z,99966.47
2022-08-12T10:06:26.532Z,99979.22
2022-08-12T10:07:23.039Z,99976.72
2022-08-12T10:08:16.638Z,99971.16
2022-08-12T10:09:08.591Z,99966.47
2022-08-12T10:09:57.938Z,99967.00
2022-08-12T10:11:07.936Z,99960.34
2022-08-12T10:12:13.904Z,99966.69
2022-08-12T10:13:34.350Z,99961.41
2022-08-12T10:14:34.945Z,99971.72
2022-08-12T10:16:02.774Z,99961.50
2022-08-12T10:16:39.283Z,99961.16
2022-08-12T10:17:26.545Z,99956.97
2022-08-12T10:18:13.785Z,99959.72
2022-08-12T10:19:06.182Z,99954.16
2022-08-12T10:20:05.235Z,99953.09
2022-08-12T10:20:57.825Z,99958.88
2022-08-12T10:21:45.274Z,99962.28
2022-08-12T10:22:40.193Z,99957.63
2022-08-12T10:23:40.113Z,99954.59
2022-08-12T10:24:27.606Z,99947.03
2022-08-12T10:26:36.751Z,99948.94
2022-08-12T10:26:59.997Z,99946.09
2022-08-12T10:28:24.661Z,99940.78
2022-08-12T10:30:40.769Z,99947.37
2022-08-12T10:30:43.916Z,99956.84
2022-08-12T10:32:19.767Z,99947.09
2022-08-12T10:32:44.813Z,99952.22
2022-08-12T10:33:43.593Z,99939.47
2022-08-12T10:34:53.183Z,99942.47
2022-08-12T10:35:44.126Z,99942.66
2022-08-12T10:36:40.104Z,99942.06
2022-08-12T10:38:35.354Z,99949.84
2022-08-12T10:38:41.329Z,99942.97
2022-08-12T10:40:03.290Z,99941.28
2022-08-12T10:41:01.050Z,99936.28
2022-08-12T10:42:09.816Z,99934.88
2022-08-12T10:43:16.727Z,99940.13
2022-08-12T10:44:05.425Z,99950.38